Time;durP1;ratioP1;P1;durP2;ratioP2;P2;SDS_P1;SDS_P2;PMS_P1;PMS_P2;Temp;Humidity;BMP_temperature;BMP_pressure;BME280_temperature;BME280_humidity;BME280_pressure;Samples;Min_cycle;Max_cycle;Signal;HPM_P1;HPM_P2
2021/04/22 00:00:15;;;;;;;7.22;4.95;;;9.50;99.90;;;;;;4969167;28;20038;-89
2021/04/22 00:02:42;;;;;;;8.20;5.32;;;9.40;99.90;;;;;;4977457;28;20034;-90
2021/04/22 00:05:13;;;;;;;6.93;5.10;;;9.40;99.90;;;;;;4961764;28;20031;-89
2021/04/22 00:07:39;;;;;;;9.05;5.72;;;9.40;99.90;;;;;;4993155;28;20026;-89
2021/04/22 00:10:13;;;;;;;9.60;6.13;;;9.40;99.90;;;;;;4958194;28;20125;-89
2021/04/22 00:12:42;;;;;;;9.40;5.25;;;9.40;99.90;;;;;;4974147;28;20031;-88
2021/04/22 00:15:19;;;;;;;9.27;5.72;;;9.40;99.90;;;;;;4958131;28;20113;-90
2021/04/22 00:17:47;;;;;;;7.22;5.18;;;9.30;99.90;;;;;;4990172;28;20043;-89
2021/04/22 00:20:15;;;;;;;6.68;4.75;;;9.30;99.90;;;;;;4976113;28;20097;-88
2021/04/22 00:22:41;;;;;;;9.23;6.20;;;9.30;99.90;;;;;;4961386;28;20485;-90
2021/04/22 00:25:07;;;;;;;9.00;5.93;;;9.30;99.90;;;;;;4993768;28;20370;-89
2021/04/22 00:27:34;;;;;;;9.18;5.95;;;9.20;99.90;;;;;;4977016;28;20057;-89
2021/04/22 00:30:00;;;;;;;11.93;5.97;;;9.20;99.90;;;;;;4961109;28;20069;-89
2021/04/22 00:32:26;;;;;;;10.63;6.18;;;9.10;99.90;;;;;;4960930;28;20047;-91
2021/04/22 00:34:52;;;;;;;12.88;6.60;;;9.20;99.90;;;;;;4977124;28;20026;-89
2021/04/22 00:37:18;;;;;;;8.57;6.38;;;9.20;99.90;;;;;;4976975;28;20030;-89
2021/04/22 00:39:52;;;;;;;12.98;7.15;;;9.10;99.90;;;;;;4960701;28;20048;-89
2021/04/22 00:42:18;;;;;;;12.68;7.13;;;9.10;99.90;;;;;;4977024;28;20043;-90
2021/04/22 00:44:47;;;;;;;12.75;7.10;;;9.10;99.90;;;;;;4977255;28;20030;-90
2021/04/22 00:47:15;;;;;;;11.88;6.95;;;9.10;99.90;;;;;;4958363;28;20034;-90
2021/04/22 00:49:42;;;;;;;11.43;7.63;;;9.10;99.90;;;;;;4976739;28;20026;-90
2021/04/22 00:52:10;;;;;;;11.93;7.45;;;9.10;99.90;;;;;;4976588;28;20049;-88
2021/04/22 00:54:38;;;;;;;11.27;7.05;;;9.10;99.90;;;;;;4976633;28;20034;-90
2021/04/22 00:57:06;;;;;;;12.68;7.55;;;9.00;99.90;;;;;;4959315;28;20533;-89
2021/04/22 00:59:32;;;;;;;12.82;7.35;;;9.10;99.90;;;;;;4989543;28;20034;-88
2021/04/22 01:01:57;;;;;;;9.88;6.65;;;9.00;99.90;;;;;;4972961;28;20423;-90
2021/04/22 01:04:23;;;;;;;11.77;7.65;;;9.00;99.90;;;;;;4960853;28;20100;-88
2021/04/22 01:06:50;;;;;;;13.30;6.97;;;9.00;99.90;;;;;;4973024;28;20042;-88
2021/04/22 01:09:15;;;;;;;11.35;6.75;;;8.90;99.90;;;;;;4972993;28;20046;-88
2021/04/22 01:11:42;;;;;;;9.35;5.80;;;8.90;99.90;;;;;;4960023;28;20038;-89
2021/04/22 01:14:08;;;;;;;13.07;6.32;;;8.80;99.90;;;;;;4960148;28;20039;-89
2021/04/22 01:16:34;;;;;;;11.13;7.25;;;8.80;99.90;;;;;;4976436;28;20053;-91
2021/04/22 01:18:59;;;;;;;10.75;6.72;;;8.90;99.90;;;;;;4957102;28;20418;-89
2021/04/22 01:21:26;;;;;;;12.93;7.03;;;8.80;99.90;;;;;;4956705;28;20042;-88
2021/04/22 01:23:54;;;;;;;8.85;6.20;;;8.80;99.90;;;;;;4955928;28;20035;-88
2021/04/22 01:26:22;;;;;;;9.45;6.60;;;8.80;99.90;;;;;;4973924;28;20030;-89
2021/04/22 01:28:49;;;;;;;11.15;7.10;;;8.80;99.90;;;;;;4973344;28;20050;-88
2021/04/22 01:31:14;;;;;;;12.00;7.40;;;8.80;99.90;;;;;;4991824;28;20030;-91
2021/04/22 01:33:41;;;;;;;10.15;6.43;;;8.80;99.90;;;;;;4964812;28;20041;-89
2021/04/22 01:36:07;;;;;;;12.05;7.45;;;8.80;99.90;;;;;;4956820;28;20069;-88
2021/04/22 01:38:35;;;;;;;10.52;6.47;;;8.70;99.90;;;;;;5003855;28;20049;-89
2021/04/22 01:41:01;;;;;;;13.05;8.00;;;8.80;99.90;;;;;;4956623;28;20081;-91
2021/04/22 01:43:28;;;;;;;14.73;8.15;;;8.80;99.90;;;;;;4956486;28;20421;-89
2021/04/22 01:45:54;;;;;;;13.00;8.32;;;8.70;99.90;;;;;;4956455;28;20033;-91
2021/04/22 01:48:22;;;;;;;16.27;7.97;;;8.70;99.90;;;;;;4966800;28;20109;-90
2021/04/22 01:50:48;;;;;;;14.60;7.32;;;8.70;99.90;;;;;;4956166;28;20035;-89
2021/04/22 01:53:14;;;;;;;13.10;8.02;;;8.70;99.90;;;;;;4956470;28;20097;-90
2021/04/22 01:55:47;;;;;;;10.55;6.55;;;8.70;99.90;;;;;;4969916;28;20029;-90
2021/04/22 01:58:20;;;;;;;13.35;6.97;;;8.60;99.90;;;;;;4975410;28;20113;-91
2021/04/22 02:00:53;;;;;;;11.48;6.90;;;8.50;99.90;;;;;;4972626;28;20062;-89
2021/04/22 02:03:20;;;;;;;17.05;8.18;;;8.50;99.90;;;;;;4972543;28;20031;-91
2021/04/22 02:05:46;;;;;;;13.45;6.40;;;8.50;99.90;;;;;;4976790;28;20118;-90
2021/04/22 02:08:12;;;;;;;10.85;6.45;;;8.40;99.90;;;;;;4990593;28;20088;-90
2021/04/22 02:10:40;;;;;;;10.45;6.55;;;8.40;99.90;;;;;;4976009;28;20034;-91
2021/04/22 02:13:09;;;;;;;12.88;6.35;;;8.30;99.90;;;;;;4991266;28;20027;-90
2021/04/22 02:15:36;;;;;;;12.65;6.30;;;8.30;99.90;;;;;;4975638;28;20548;-90
2021/04/22 02:18:03;;;;;;;9.63;6.20;;;8.20;99.90;;;;;;4965849;28;20031;-89
2021/04/22 02:20:28;;;;;;;12.57;6.57;;;8.10;99.90;;;;;;4939716;28;20035;-90
2021/04/22 02:22:55;;;;;;;14.02;6.25;;;8.10;99.90;;;;;;4975340;28;20500;-91
2021/04/22 02:25:24;;;;;;;10.65;5.88;;;8.00;99.90;;;;;;4959719;28;20045;-92
2021/04/22 02:27:50;;;;;;;13.43;6.13;;;8.00;99.90;;;;;;4991086;28;20027;-90
2021/04/22 02:30:22;;;;;;;9.88;6.18;;;7.80;99.90;;;;;;4974980;28;20033;-89
2021/04/22 02:32:49;;;;;;;12.80;6.03;;;7.70;99.90;;;;;;4955806;28;20037;-88
2021/04/22 02:35:17;;;;;;;9.60;5.82;;;7.60;99.90;;;;;;4971851;28;20038;-89
2021/04/22 02:37:43;;;;;;;9.60;5.85;;;7.50;99.90;;;;;;4973900;28;20030;-89
2021/04/22 02:40:16;;;;;;;9.80;5.75;;;7.40;99.90;;;;;;4991290;28;20090;-89
2021/04/22 02:42:42;;;;;;;10.57;6.53;;;7.40;99.90;;;;;;4974522;28;20062;-89
2021/04/22 02:45:11;;;;;;;11.45;5.80;;;7.30;99.90;;;;;;4991124;28;20042;-88
2021/04/22 02:47:36;;;;;;;12.05;6.00;;;7.30;99.90;;;;;;4958166;28;20497;-88
2021/04/22 02:50:05;;;;;;;10.30;6.05;;;7.30;99.90;;;;;;4974849;28;20057;-88
2021/04/22 02:52:31;;;;;;;12.82;5.50;;;7.30;99.90;;;;;;4955289;28;20043;-88
2021/04/22 02:54:57;;;;;;;9.90;5.80;;;7.30;99.90;;;;;;4954012;28;20560;-89
2021/04/22 02:57:23;;;;;;;9.25;5.72;;;7.20;99.90;;;;;;4974846;28;20070;-90
2021/04/22 02:59:48;;;;;;;11.38;5.47;;;7.20;99.90;;;;;;4955903;28;20027;-90
2021/04/22 03:02:14;;;;;;;10.38;5.43;;;7.20;99.90;;;;;;4971115;28;20125;-88
2021/04/22 03:04:40;;;;;;;9.73;5.32;;;7.20;99.90;;;;;;4988572;28;20031;-89
2021/04/22 03:07:05;;;;;;;9.57;5.30;;;7.20;99.90;;;;;;4970508;28;20038;-88
2021/04/22 03:09:31;;;;;;;11.57;5.78;;;7.10;99.90;;;;;;4951319;28;20034;-88
2021/04/22 03:11:57;;;;;;;11.02;5.07;;;7.00;99.90;;;;;;4967620;28;20055;-87
2021/04/22 03:14:23;;;;;;;8.48;5.35;;;7.00;99.90;;;;;;4990490;28;20041;-88
2021/04/22 03:16:48;;;;;;;10.80;4.80;;;7.00;99.90;;;;;;4973636;28;20080;-88
2021/04/22 03:19:14;;;;;;;10.55;4.97;;;6.90;99.90;;;;;;4971263;28;20039;-88
2021/04/22 03:21:40;;;;;;;11.25;4.97;;;6.90;99.90;;;;;;4936618;28;20034;-88
2021/04/22 03:24:06;;;;;;;11.57;5.00;;;6.80;99.90;;;;;;4958173;28;20146;-88
2021/04/22 03:26:32;;;;;;;9.07;4.57;;;6.80;99.90;;;;;;4967279;28;20516;-89
2021/04/22 03:28:58;;;;;;;9.95;4.43;;;6.80;99.90;;;;;;4970152;28;20030;-89
2021/04/22 03:31:25;;;;;;;8.32;4.05;;;6.70;99.90;;;;;;4962402;28;20677;-89
2021/04/22 03:33:51;;;;;;;7.45;4.32;;;6.70;99.90;;;;;;4970042;28;20485;-90
2021/04/22 03:36:17;;;;;;;6.68;3.67;;;6.70;99.90;;;;;;4974221;28;20085;-89
2021/04/22 03:38:42;;;;;;;7.40;3.50;;;6.60;99.90;;;;;;4973677;28;20030;-88
2021/04/22 03:41:08;;;;;;;11.07;3.45;;;6.60;99.90;;;;;;4958706;28;20590;-88
2021/04/22 03:43:34;;;;;;;7.07;3.67;;;6.50;99.90;;;;;;4974296;28;20125;-89
2021/04/22 03:45:59;;;;;;;7.78;3.33;;;6.40;99.90;;;;;;4949792;28;20121;-89
2021/04/22 03:48:25;;;;;;;5.45;2.95;;;6.40;99.90;;;;;;4993061;28;20385;-90
2021/04/22 03:50:51;;;;;;;6.95;2.95;;;6.30;99.90;;;;;;4977394;28;20038;-89
2021/04/22 03:53:17;;;;;;;6.18;3.00;;;6.20;99.90;;;;;;4977537;28;20037;-88
2021/04/22 03:55:42;;;;;;;6.35;2.97;;;6.10;99.90;;;;;;4979326;28;20497;-89
2021/04/22 03:58:08;;;;;;;7.22;2.55;;;6.00;99.90;;;;;;4964769;28;20034;-88
2021/04/22 04:00:34;;;;;;;4.82;2.58;;;6.00;99.90;;;;;;4986142;28;20042;-88
2021/04/22 04:02:59;;;;;;;6.55;2.83;;;5.90;99.90;;;;;;4977022;28;20035;-89
2021/04/22 04:05:25;;;;;;;5.15;2.97;;;5.90;99.90;;;;;;4958467;28;20046;-88
2021/04/22 04:07:53;;;;;;;6.90;2.60;;;5.90;99.90;;;;;;4969529;28;20027;-89
2021/04/22 04:10:19;;;;;;;6.97;2.58;;;5.80;99.90;;;;;;4972087;28;20022;-88
2021/04/22 04:12:45;;;;;;;5.22;2.28;;;5.80;99.90;;;;;;4992690;28;20030;-87
2021/04/22 04:15:12;;;;;;;5.65;2.20;;;5.70;99.90;;;;;;4977718;28;20062;-88
2021/04/22 04:17:38;;;;;;;6.65;2.22;;;5.60;99.90;;;;;;4976107;28;20058;-88
2021/04/22 04:20:10;;;;;;;5.70;2.40;;;5.60;99.90;;;;;;4961169;28;20136;-89
2021/04/22 04:22:36;;;;;;;9.75;2.50;;;5.60;99.90;;;;;;4973760;28;20121;-89
2021/04/22 04:25:04;;;;;;;4.43;2.22;;;5.50;99.90;;;;;;4958327;28;20537;-89
2021/04/22 04:27:30;;;;;;;6.38;2.45;;;5.50;99.90;;;;;;4968695;28;20030;-89
2021/04/22 04:29:55;;;;;;;7.15;2.45;;;5.60;99.90;;;;;;4961149;28;20133;-91
2021/04/22 04:32:21;;;;;;;6.03;2.55;;;5.60;99.90;;;;;;4976356;28;20038;-89
2021/04/22 04:34:47;;;;;;;6.03;2.08;;;5.60;99.90;;;;;;4977511;28;20108;-90
2021/04/22 04:37:13;;;;;;;4.00;2.00;;;5.60;99.90;;;;;;4969267;28;20389;-89
2021/04/22 04:39:38;;;;;;;3.88;1.75;;;5.70;99.90;;;;;;4956877;28;20122;-89
2021/04/22 04:42:05;;;;;;;2.85;2.13;;;5.70;99.90;;;;;;4974431;28;20030;-89
2021/04/22 04:44:30;;;;;;;6.97;1.92;;;5.70;99.90;;;;;;4960863;28;20038;-89
2021/04/22 04:46:56;;;;;;;3.63;1.55;;;5.70;99.90;;;;;;4959901;28;20034;-90
2021/04/22 04:49:22;;;;;;;3.38;1.75;;;5.70;99.90;;;;;;4992632;28;20037;-88
2021/04/22 04:51:48;;;;;;;2.78;1.48;;;5.80;99.90;;;;;;4960483;28;20030;-89
2021/04/22 04:54:13;;;;;;;3.72;1.42;;;5.80;99.90;;;;;;4960562;28;20046;-90
2021/04/22 04:56:39;;;;;;;3.22;1.33;;;5.80;99.90;;;;;;4976364;28;20042;-89
2021/04/22 04:59:05;;;;;;;6.40;1.55;;;5.80;99.90;;;;;;4959791;28;20053;-90
2021/04/22 05:01:30;;;;;;;5.25;1.70;;;5.70;99.90;;;;;;4972978;28;20549;-90
2021/04/22 05:03:56;;;;;;;2.75;1.13;;;5.70;99.90;;;;;;4975951;28;20030;-90
2021/04/22 05:06:27;;;;;;;4.88;1.40;;;5.70;99.90;;;;;;4975851;28;20031;-91
2021/04/22 05:08:53;;;;;;;2.58;1.70;;;5.70;99.90;;;;;;4960460;28;20123;-91
2021/04/22 05:11:18;;;;;;;5.97;1.52;;;5.70;99.90;;;;;;4959998;28;20508;-90
2021/04/22 05:13:44;;;;;;;3.75;1.38;;;5.70;99.90;;;;;;4970350;28;20038;-91
2021/04/22 05:16:10;;;;;;;4.03;1.70;;;5.60;99.90;;;;;;4956949;28;20076;-92
2021/04/22 05:18:36;;;;;;;2.85;1.10;;;5.60;99.90;;;;;;4964505;28;20125;-93
2021/04/22 05:21:02;;;;;;;6.68;1.25;;;5.60;99.90;;;;;;4975484;28;20033;-90
2021/04/22 05:23:28;;;;;;;3.20;1.20;;;5.60;99.90;;;;;;4972158;28;20042;-90
2021/04/22 05:25:54;;;;;;;4.70;1.48;;;5.50;99.90;;;;;;4955125;28;20556;-89
2021/04/22 05:28:23;;;;;;;4.95;1.27;;;5.50;99.90;;;;;;4962182;28;20039;-90
2021/04/22 05:30:50;;;;;;;2.47;1.50;;;5.50;99.90;;;;;;4976092;28;20027;-91
2021/04/22 05:33:16;;;;;;;5.85;1.60;;;5.50;99.90;;;;;;4972231;28;20038;-91
2021/04/22 05:35:42;;;;;;;9.15;1.80;;;5.60;99.90;;;;;;4972594;28;20038;-90
2021/04/22 05:38:09;;;;;;;7.03;1.95;;;5.60;99.90;;;;;;4970766;28;20061;-91
2021/04/22 05:40:35;;;;;;;5.55;1.65;;;5.80;99.90;;;;;;4975733;28;20030;-91
2021/04/22 05:43:02;;;;;;;4.80;1.25;;;6.00;99.90;;;;;;4975469;28;20482;-91
2021/04/22 05:45:27;;;;;;;5.03;1.30;;;6.30;99.90;;;;;;4972360;28;20026;-91
2021/04/22 05:47:54;;;;;;;2.65;1.20;;;6.60;99.90;;;;;;4982226;28;20058;-91
2021/04/22 05:50:21;;;;;;;4.47;1.85;;;6.90;99.90;;;;;;4985401;28;20058;-91
2021/04/22 05:52:47;;;;;;;4.53;1.35;;;7.30;99.90;;;;;;4974282;28;20092;-90
2021/04/22 05:55:15;;;;;;;4.55;1.77;;;7.70;99.90;;;;;;4975858;28;20065;-91
2021/04/22 05:57:41;;;;;;;1.95;1.17;;;8.10;99.90;;;;;;4976274;28;20034;-90
2021/04/22 06:00:10;;;;;;;4.18;1.50;;;8.50;99.90;;;;;;4973064;28;20077;-91
2021/04/22 06:02:36;;;;;;;4.60;1.73;;;8.80;99.90;;;;;;4974860;28;20046;-91
2021/04/22 06:05:02;;;;;;;3.15;1.10;;;9.20;99.90;;;;;;4993755;28;20022;-90
2021/04/22 06:07:28;;;;;;;5.57;1.05;;;9.50;99.90;;;;;;4955700;28;20023;-91
2021/04/22 06:09:54;;;;;;;5.53;1.75;;;9.80;99.90;;;;;;4972339;28;20526;-92
2021/04/22 06:12:19;;;;;;;4.63;1.20;;;10.10;99.90;;;;;;4980790;28;20030;-91
2021/04/22 06:14:45;;;;;;;6.53;1.48;;;10.20;99.90;;;;;;4987088;28;20085;-90
2021/04/22 06:17:11;;;;;;;4.63;1.30;;;10.30;99.90;;;;;;4974345;28;20031;-91
2021/04/22 06:19:37;;;;;;;3.22;1.30;;;10.40;99.70;;;;;;4956098;28;20114;-88
2021/04/22 06:22:03;;;;;;;4.10;1.42;;;10.60;99.90;;;;;;4981607;28;20457;-91
2021/04/22 06:24:28;;;;;;;3.33;1.45;;;10.80;99.90;;;;;;4975124;28;20492;-91
2021/04/22 06:26:55;;;;;;;4.00;1.40;;;11.10;98.60;;;;;;4989068;28;20038;-91
2021/04/22 06:29:21;;;;;;;3.53;1.10;;;11.30;94.20;;;;;;4972087;28;20509;-91
2021/04/22 06:31:50;;;;;;;3.40;1.20;;;11.40;93.00;;;;;;4975744;28;20054;-91
2021/04/22 06:34:16;;;;;;;3.38;1.50;;;11.40;90.60;;;;;;4975420;28;20058;-90
2021/04/22 06:36:43;;;;;;;3.40;1.00;;;11.40;90.30;;;;;;4988615;28;20113;-91
2021/04/22 06:39:09;;;;;;;3.95;0.95;;;11.40;87.70;;;;;;4979316;28;20026;-92
2021/04/22 06:41:36;;;;;;;4.40;1.30;;;11.50;88.70;;;;;;4973855;28;20030;-89
2021/04/22 06:44:02;;;;;;;4.38;1.15;;;11.70;87.70;;;;;;4992063;28;20130;-91
2021/04/22 06:46:30;;;;;;;5.70;1.65;;;12.00;86.10;;;;;;4952293;28;20026;-91
2021/04/22 06:48:56;;;;;;;5.10;1.15;;;12.20;82.20;;;;;;4971936;28;20034;-91
2021/04/22 06:51:22;;;;;;;4.57;1.27;;;12.50;85.90;;;;;;4957326;28;20084;-90
2021/04/22 06:53:47;;;;;;;2.38;1.10;;;12.80;85.70;;;;;;4971251;28;20638;-90
2021/04/22 06:56:13;;;;;;;6.22;1.52;;;13.20;79.20;;;;;;4974055;28;20109;-90
2021/04/22 06:58:39;;;;;;;2.90;1.48;;;13.50;76.00;;;;;;4956050;28;20070;-91
2021/04/22 07:01:04;;;;;;;6.43;1.40;;;13.70;71.60;;;;;;4974170;28;20030;-91
2021/04/22 07:03:30;;;;;;;4.53;1.20;;;13.90;69.40;;;;;;4981230;28;20031;-90
2021/04/22 07:05:56;;;;;;;4.00;1.45;;;13.60;69.50;;;;;;4958198;28;20374;-91
2021/04/22 07:08:22;;;;;;;5.22;1.25;;;13.80;74.10;;;;;;4981156;28;20114;-90
2021/04/22 07:10:48;;;;;;;2.90;1.20;;;14.10;71.60;;;;;;4963249;28;20513;-89
2021/04/22 07:13:14;;;;;;;2.92;1.20;;;14.30;63.80;;;;;;4974107;28;20034;-90
2021/04/22 07:15:39;;;;;;;3.13;1.13;;;14.50;65.70;;;;;;4958515;28;20088;-86
2021/04/22 07:18:06;;;;;;;1.88;1.08;;;14.70;65.90;;;;;;4973836;28;20038;-91
2021/04/22 07:20:32;;;;;;;2.78;1.55;;;15.00;63.30;;;;;;4959882;28;20035;-91
2021/04/22 07:22:59;;;;;;;4.85;1.40;;;15.40;61.40;;;;;;4977114;28;20026;-88
2021/04/22 07:25:27;;;;;;;4.63;1.60;;;15.90;63.00;;;;;;4974514;28;20034;-91
2021/04/22 07:27:53;;;;;;;7.75;1.42;;;16.10;57.20;;;;;;4974091;28;20029;-91
2021/04/22 07:30:20;;;;;;;4.25;1.30;;;16.40;59.70;;;;;;4978146;28;20117;-91
2021/04/22 07:32:45;;;;;;;3.42;1.33;;;16.80;56.30;;;;;;4957483;28;20413;-89
2021/04/22 07:35:12;;;;;;;2.60;1.00;;;16.90;56.50;;;;;;4993724;28;20038;-90
2021/04/22 07:37:39;;;;;;;5.13;1.50;;;17.10;56.10;;;;;;4958034;28;20061;-89
2021/04/22 07:40:10;;;;;;;3.22;1.30;;;17.30;54.40;;;;;;4974315;28;20033;-91
2021/04/22 07:42:36;;;;;;;5.32;1.35;;;17.70;50.60;;;;;;4955166;28;20038;-86
2021/04/22 07:45:03;;;;;;;4.25;1.13;;;17.80;51.80;;;;;;4974114;28;20031;-89
2021/04/22 07:47:29;;;;;;;5.22;1.98;;;17.70;49.50;;;;;;4971571;28;20015;-89
2021/04/22 07:49:55;;;;;;;5.80;1.50;;;17.80;49.40;;;;;;4968205;28;20101;-92
2021/04/22 07:52:21;;;;;;;5.95;1.67;;;17.70;48.80;;;;;;4991474;28;20604;-91
2021/04/22 07:54:47;;;;;;;6.95;1.88;;;17.40;49.70;;;;;;4975041;28;20027;-90
2021/04/22 07:57:13;;;;;;;3.90;1.30;;;17.20;49.70;;;;;;4976081;28;20177;-90
2021/04/22 07:59:39;;;;;;;6.18;1.80;;;17.00;49.30;;;;;;4972347;28;20105;-90
2021/04/22 08:02:07;;;;;;;7.15;1.60;;;15.70;47.20;;;;;;4965070;28;20549;-89
2021/04/22 08:04:34;;;;;;;2.38;1.30;;;14.10;51.50;;;;;;4974593;28;20030;-91
2021/04/22 08:07:00;;;;;;;4.85;1.55;;;13.40;55.40;;;;;;4991618;28;20027;-89
2021/04/22 08:09:26;;;;;;;5.82;2.22;;;13.10;53.00;;;;;;4960434;28;20045;-89
2021/04/22 08:11:52;;;;;;;9.82;1.60;;;12.30;56.20;;;;;;4988745;28;20112;-88
2021/04/22 08:14:17;;;;;;;6.63;1.73;;;11.90;56.70;;;;;;4976690;28;21421;-90
2021/04/22 08:16:44;;;;;;;5.78;1.80;;;11.90;62.80;;;;;;4977432;28;20049;-92
2021/04/22 08:19:10;;;;;;;4.40;1.35;;;12.10;58.50;;;;;;4979592;28;20034;-92
2021/04/22 08:21:36;;;;;;;4.80;1.55;;;12.10;58.40;;;;;;4981249;28;20041;-91
2021/04/22 08:24:04;;;;;;;2.58;1.23;;;12.10;59.00;;;;;;4975563;28;20050;-92
2021/04/22 08:26:30;;;;;;;6.68;1.98;;;12.00;58.80;;;;;;4978382;28;20037;-90
2021/04/22 08:28:57;;;;;;;4.28;1.23;;;12.00;59.50;;;;;;4992772;28;20448;-91
2021/04/22 08:31:24;;;;;;;3.47;1.30;;;12.00;59.90;;;;;;4992919;28;20027;-91
2021/04/22 08:33:58;;;;;;;5.20;1.50;;;12.00;59.80;;;;;;4970161;28;20058;-92
2021/04/22 08:36:25;;;;;;;7.70;2.13;;;12.10;59.00;;;;;;4989047;28;20062;-92
2021/04/22 08:38:53;;;;;;;12.77;1.80;;;12.20;58.90;;;;;;4960047;28;20023;-91
2021/04/22 08:41:19;;;;;;;5.53;1.42;;;12.10;56.60;;;;;;4947466;28;20038;-92
2021/04/22 08:43:48;;;;;;;7.63;1.48;;;11.60;59.00;;;;;;4977848;28;20062;-92
2021/04/22 08:46:16;;;;;;;5.18;1.30;;;11.30;59.90;;;;;;4971090;28;20105;-92
2021/04/22 08:48:42;;;;;;;6.63;1.52;;;11.10;61.20;;;;;;4962007;28;20045;-93
2021/04/22 08:51:11;;;;;;;2.95;1.40;;;10.80;63.20;;;;;;4983762;28;20494;-92
2021/04/22 08:53:41;;;;;;;3.95;1.90;;;10.60;58.40;;;;;;4962655;28;20417;-92
2021/04/22 08:56:07;;;;;;;4.88;1.50;;;10.10;64.20;;;;;;4967363;28;20030;-92
2021/04/22 08:58:34;;;;;;;4.25;1.50;;;10.00;67.20;;;;;;4968406;28;20374;-89
2021/04/22 09:01:04;;;;;;;8.60;2.67;;;10.00;66.80;;;;;;4977233;28;20030;-90
2021/04/22 09:03:43;;;;;;;3.55;1.42;;;10.00;63.70;;;;;;4973174;28;20031;-89
2021/04/22 09:06:09;;;;;;;7.75;1.63;;;9.80;64.20;;;;;;4987462;28;20081;-90
2021/04/22 09:08:48;;;;;;;8.10;1.83;;;9.70;65.70;;;;;;4973312;28;20458;-91
2021/04/22 09:11:16;;;;;;;5.60;1.60;;;9.70;65.70;;;;;;4965422;28;20085;-89
2021/04/22 09:13:42;;;;;;;5.82;1.52;;;9.60;68.00;;;;;;4955737;28;20073;-90
2021/04/22 09:16:16;;;;;;;4.68;1.38;;;9.60;67.00;;;;;;4972986;28;20739;-90
2021/04/22 09:18:45;;;;;;;9.73;2.00;;;9.60;69.20;;;;;;4987869;28;20049;-91
2021/04/22 09:21:40;;;;;;;7.13;1.50;;;9.70;72.00;;;;;;4951620;28;20038;-93
2021/04/22 09:24:14;;;;;;;2.90;1.00;;;9.70;64.20;;;;;;4974787;28;20108;-88
2021/04/22 09:26:43;;;;;;;3.47;1.10;;;9.70;67.00;;;;;;4972864;28;20019;-91
2021/04/22 09:29:14;;;;;;;6.70;1.58;;;9.60;64.90;;;;;;4989186;28;20026;-92
2021/04/22 09:31:42;;;;;;;5.70;2.22;;;9.60;66.90;;;;;;4945988;28;20041;-89
2021/04/22 09:34:16;;;;;;;5.47;1.77;;;9.60;64.50;;;;;;4960504;28;20027;-90
2021/04/22 09:36:50;;;;;;;3.03;1.25;;;9.50;66.70;;;;;;4971307;28;20097;-91
2021/04/22 09:39:22;;;;;;;3.10;1.58;;;9.50;66.60;;;;;;5001746;28;20039;-89
2021/04/22 09:41:49;;;;;;;4.95;1.73;;;9.50;66.80;;;;;;4958748;28;20037;-90
2021/04/22 09:44:17;;;;;;;5.60;1.98;;;9.60;70.30;;;;;;4962713;28;20122;-89
2021/04/22 09:46:45;;;;;;;5.43;2.13;;;9.70;69.00;;;;;;4937544;28;20034;-90
2021/04/22 09:49:15;;;;;;;4.20;1.67;;;9.80;70.40;;;;;;4937706;28;20078;-91
2021/04/22 09:51:42;;;;;;;8.48;1.70;;;9.90;67.70;;;;;;4971405;28;20077;-89
2021/04/22 09:54:17;;;;;;;5.75;1.67;;;10.00;71.60;;;;;;4988927;28;20117;-90
2021/04/22 09:56:43;;;;;;;5.82;1.90;;;10.20;71.00;;;;;;4964139;28;20046;-89
2021/04/22 09:59:09;;;;;;;3.90;1.30;;;10.40;71.80;;;;;;4971589;28;20041;-90
2021/04/22 10:01:35;;;;;;;9.95;2.13;;;10.50;63.30;;;;;;4942462;28;20043;-90
2021/04/22 10:04:01;;;;;;;5.60;1.80;;;10.40;66.30;;;;;;4973615;28;20657;-90
2021/04/22 10:06:40;;;;;;;7.72;1.60;;;10.50;65.70;;;;;;4947767;28;20026;-90
2021/04/22 10:09:07;;;;;;;4.15;1.60;;;10.60;64.00;;;;;;4968027;28;20140;-89
2021/04/22 10:11:48;;;;;;;4.72;1.42;;;10.70;62.50;;;;;;4969576;28;20118;-92
2021/04/22 10:14:15;;;;;;;6.38;1.80;;;10.80;64.70;;;;;;4964116;28;20065;-91
2021/04/22 10:16:43;;;;;;;6.38;2.08;;;10.80;63.20;;;;;;4968985;28;20037;-90
2021/04/22 10:19:19;;;;;;;9.32;2.00;;;10.80;63.80;;;;;;4973193;28;20059;-90
2021/04/22 10:21:45;;;;;;;5.00;1.67;;;10.90;64.20;;;;;;4979133;28;20050;-90
2021/04/22 10:24:13;;;;;;;4.90;2.20;;;11.00;66.10;;;;;;4972305;28;20060;-90
2021/04/22 10:26:39;;;;;;;8.52;1.83;;;11.00;59.80;;;;;;4970921;28;20037;-90
2021/04/22 10:29:06;;;;;;;3.67;1.50;;;11.00;59.80;;;;;;4985623;28;20030;-90
2021/04/22 10:31:32;;;;;;;6.53;1.90;;;11.00;61.40;;;;;;4954126;28;20069;-88
2021/04/22 10:33:59;;;;;;;3.50;1.73;;;11.10;65.50;;;;;;4971105;28;21385;-89
2021/04/22 10:36:25;;;;;;;6.25;1.92;;;11.30;65.60;;;;;;4979732;28;20037;-89
2021/04/22 10:38:52;;;;;;;7.10;1.73;;;11.50;65.10;;;;;;4972004;28;20084;-90
2021/04/22 10:41:20;;;;;;;4.88;1.90;;;11.60;59.00;;;;;;4987355;28;20077;-90
2021/04/22 10:43:46;;;;;;;6.78;1.52;;;11.60;56.30;;;;;;4979516;28;20037;-90
2021/04/22 10:46:12;;;;;;;2.95;1.30;;;11.60;60.90;;;;;;4971762;28;20062;-90
2021/04/22 10:48:39;;;;;;;10.80;1.70;;;11.60;59.00;;;;;;4954040;28;20061;-93
2021/04/22 10:51:06;;;;;;;4.68;1.52;;;11.70;61.10;;;;;;4992641;28;20093;-92
2021/04/22 10:53:38;;;;;;;8.30;1.90;;;11.80;60.60;;;;;;4976501;28;20023;-91
2021/04/22 10:56:06;;;;;;;4.43;1.63;;;11.90;62.00;;;;;;4976010;28;20500;-93
2021/04/22 10:58:42;;;;;;;5.80;1.67;;;11.80;55.50;;;;;;4977386;28;20043;-91
2021/04/22 11:01:11;;;;;;;6.07;1.70;;;11.70;56.80;;;;;;4993120;28;20054;-91
2021/04/22 11:03:40;;;;;;;7.88;2.17;;;11.60;57.30;;;;;;4977761;28;20053;-90
2021/04/22 11:06:07;;;;;;;4.35;1.35;;;11.50;56.30;;;;;;4978240;28;20400;-91
2021/04/22 11:08:39;;;;;;;6.40;1.75;;;11.30;52.50;;;;;;4984823;28;20026;-92
2021/04/22 11:11:27;;;;;;;4.90;1.77;;;11.30;54.00;;;;;;4983820;28;20030;-90
2021/04/22 11:14:15;;;;;;;5.60;1.83;;;11.20;54.50;;;;;;4989191;28;20030;-90
2021/04/22 11:16:45;;;;;;;3.47;1.33;;;11.30;59.10;;;;;;4961585;28;20097;-91
2021/04/22 11:19:31;;;;;;;7.78;1.63;;;11.40;54.80;;;;;;4958803;28;20349;-92
2021/04/22 11:21:59;;;;;;;4.70;1.52;;;11.50;54.00;;;;;;5000487;28;20041;-90
2021/04/22 11:24:29;;;;;;;4.43;1.65;;;11.50;54.80;;;;;;4959360;28;20050;-92
2021/04/22 11:27:05;;;;;;;3.28;1.33;;;11.60;53.00;;;;;;4981785;28;20034;-89
2021/04/22 11:30:03;;;;;;;3.90;1.65;;;11.50;51.70;;;;;;4976545;28;20105;-90
2021/04/22 11:32:40;;;;;;;5.75;1.45;;;11.40;54.00;;;;;;4986060;28;20067;-90
2021/04/22 11:35:06;;;;;;;10.43;1.70;;;11.60;55.00;;;;;;4976688;28;20527;-90
2021/04/22 11:37:48;;;;;;;4.85;1.60;;;11.60;55.90;;;;;;4973724;28;20026;-90
2021/04/22 11:40:27;;;;;;;4.15;1.40;;;11.80;56.50;;;;;;4976184;28;20082;-90
2021/04/22 11:42:56;;;;;;;2.75;1.52;;;12.10;59.00;;;;;;4960433;28;20064;-93
2021/04/22 11:45:27;;;;;;;6.97;1.83;;;12.40;57.60;;;;;;4978741;28;20030;-90
2021/04/22 11:48:06;;;;;;;3.53;1.52;;;12.60;52.60;;;;;;4974780;28;20031;-89
2021/04/22 11:50:53;;;;;;;3.30;1.80;;;12.80;50.70;;;;;;4979012;28;20050;-89
2021/04/22 11:53:22;;;;;;;5.43;1.58;;;13.10;56.10;;;;;;4975506;28;20068;-92
2021/04/22 11:55:52;;;;;;;8.30;2.03;;;13.50;53.00;;;;;;4978979;28;20041;-91
2021/04/22 11:58:21;;;;;;;4.97;1.75;;;13.80;49.20;;;;;;4974818;28;20073;-90
2021/04/22 12:00:50;;;;;;;7.53;2.13;;;14.00;50.40;;;;;;4974216;28;20035;-89
2021/04/22 12:03:23;;;;;;;6.72;2.38;;;14.10;50.80;;;;;;4977391;28;20049;-89
2021/04/22 12:05:50;;;;;;;3.33;1.88;;;14.30;52.10;;;;;;4974623;28;20434;-91
2021/04/22 12:08:17;;;;;;;4.28;1.60;;;14.30;46.30;;;;;;4991433;28;20030;-90
2021/04/22 12:10:48;;;;;;;6.63;2.05;;;14.20;50.20;;;;;;4971389;28;20030;-89
2021/04/22 12:13:19;;;;;;;4.05;1.48;;;14.20;53.20;;;;;;4941644;28;20037;-88
2021/04/22 12:15:51;;;;;;;5.45;1.83;;;14.30;52.20;;;;;;4993387;28;20114;-89
2021/04/22 12:18:44;;;;;;;6.93;2.20;;;14.30;49.60;;;;;;4990990;28;20031;-90
2021/04/22 12:21:16;;;;;;;6.22;1.67;;;14.10;50.40;;;;;;4971314;28;20050;-90
2021/04/22 12:23:47;;;;;;;7.93;2.10;;;14.00;53.20;;;;;;4972921;28;20765;-89
2021/04/22 12:26:23;;;;;;;6.18;2.25;;;14.10;50.30;;;;;;4957890;28;20155;-89
2021/04/22 12:28:50;;;;;;;;;;;14.20;51.10;;;;;;4961691;28;20030;-90
2021/04/22 12:31:47;;;;;;;4.38;1.52;;;14.40;52.60;;;;;;4990610;28;19914;-89
2021/04/22 12:34:23;;;;;;;3.40;1.80;;;14.30;50.00;;;;;;4949977;28;20030;-89
2021/04/22 12:37:03;;;;;;;6.32;1.60;;;14.50;49.50;;;;;;4958606;28;20039;-89
2021/04/22 12:39:40;;;;;;;2.83;1.48;;;14.70;50.60;;;;;;4989056;28;20038;-89
2021/04/22 12:42:27;;;;;;;3.78;1.60;;;14.90;49.70;;;;;;4990570;28;20501;-91
2021/04/22 12:45:05;;;;;;;5.15;1.67;;;15.00;49.90;;;;;;4976630;28;20034;-90
2021/04/22 12:47:34;;;;;;;5.93;1.75;;;15.30;44.70;;;;;;4980910;28;20058;-88
2021/04/22 12:50:01;;;;;;;4.53;1.20;;;15.00;44.10;;;;;;4973367;28;21439;-89
2021/04/22 12:52:27;;;;;;;3.78;1.35;;;15.00;44.20;;;;;;4965380;28;20474;-89
2021/04/22 12:55:05;;;;;;;4.85;1.42;;;15.40;49.70;;;;;;4971607;28;20046;-89